Time;durP1;ratioP1;P1;durP2;ratioP2;P2;SDS_P1;SDS_P2;PMS_P1;PMS_P2;Temp;Humidity;BMP_temperature;BMP_pressure;BME280_temperature;BME280_humidity;BME280_pressure;Samples;Min_cycle;Max_cycle;Signal;HPM_P1;HPM_P2
2022/05/13 00:01:12;;;;;;;11.77;2.10;;;;;;;;;;5072459;28;20546;-64
2022/05/13 00:03:39;;;;;;;7.35;1.02;;;;;;;;;;5072403;28;20039;-64
2022/05/13 00:06:05;;;;;;;12.88;1.70;;;;;;;;;;5066227;28;20020;-64
2022/05/13 00:08:31;;;;;;;10.63;1.20;;;;;;;;;;5052407;28;20021;-64
2022/05/13 00:10:57;;;;;;;6.75;1.08;;;;;;;;;;5052236;28;20028;-64
2022/05/13 00:13:23;;;;;;;14.48;1.88;;;;;;;;;;5052165;28;20029;-64
2022/05/13 00:15:50;;;;;;;5.60;1.55;;;;;;;;;;5051790;28;20032;-64
2022/05/13 00:18:17;;;;;;;7.32;1.40;;;;;;;;;;5085037;28;20365;-64
2022/05/13 00:20:44;;;;;;;6.10;1.30;;;;;;;;;;5071952;28;20024;-64
2022/05/13 00:23:10;;;;;;;10.98;1.90;;;;;;;;;;5070827;28;20033;-64
2022/05/13 00:25:36;;;;;;;15.38;1.95;;;;;;;;;;5071843;28;20039;-64
2022/05/13 00:28:04;;;;;;;13.80;1.85;;;;;;;;;;5058421;28;20037;-64
2022/05/13 00:30:32;;;;;;;8.95;1.27;;;;;;;;;;5051875;28;20033;-64
2022/05/13 00:32:59;;;;;;;9.13;1.80;;;;;;;;;;5051898;28;20021;-64
2022/05/13 00:35:25;;;;;;;12.85;1.80;;;;;;;;;;5051921;28;20107;-64
2022/05/13 00:37:51;;;;;;;13.00;1.80;;;;;;;;;;5059282;28;20024;-64
2022/05/13 00:40:20;;;;;;;10.95;1.80;;;;;;;;;;5070640;28;20487;-64
2022/05/13 00:42:46;;;;;;;16.48;1.90;;;;;;;;;;5071285;28;20024;-65
2022/05/13 00:45:13;;;;;;;13.20;1.92;;;;;;;;;;5071293;28;20085;-64
2022/05/13 00:47:40;;;;;;;10.55;1.92;;;;;;;;;;5071835;28;20024;-64
2022/05/13 00:50:06;;;;;;;9.52;2.13;;;;;;;;;;5071283;28;20028;-65
2022/05/13 00:52:33;;;;;;;10.45;2.05;;;;;;;;;;5071401;28;20020;-64
2022/05/13 00:55:01;;;;;;;10.15;1.77;;;;;;;;;;5071402;28;20103;-64
2022/05/13 00:57:28;;;;;;;12.27;1.98;;;;;;;;;;5070340;28;20020;-64
2022/05/13 00:59:55;;;;;;;12.55;2.17;;;;;;;;;;5071162;28;20028;-64
2022/05/13 01:02:22;;;;;;;4.32;1.40;;;;;;;;;;5071050;28;20052;-64
2022/05/13 01:04:48;;;;;;;9.73;1.30;;;;;;;;;;5071316;28;20085;-64
2022/05/13 01:07:17;;;;;;;9.45;1.65;;;;;;;;;;5070988;28;20041;-64
2022/05/13 01:09:46;;;;;;;10.07;1.90;;;;;;;;;;5070844;28;20029;-63
2022/05/13 01:12:14;;;;;;;11.98;1.77;;;;;;;;;;5071073;28;20028;-64
2022/05/13 01:14:49;;;;;;;10.25;1.80;;;;;;;;;;5070368;28;20054;-64
2022/05/13 01:20:04;;;;;;;5.90;1.50;;;;;;;;;;5071117;28;20059;-64
2022/05/13 01:22:30;;;;;;;10.65;2.17;;;;;;;;;;5070945;28;20016;-64
2022/05/13 01:24:56;;;;;;;12.60;1.98;;;;;;;;;;5070864;28;20525;-64
2022/05/13 01:27:22;;;;;;;6.70;1.52;;;;;;;;;;5086553;28;20029;-64
2022/05/13 01:29:51;;;;;;;8.98;2.22;;;;;;;;;;5071082;28;20480;-64
2022/05/13 01:32:18;;;;;;;5.90;1.48;;;;;;;;;;5070374;28;20029;-64
2022/05/13 01:34:44;;;;;;;4.28;1.33;;;;;;;;;;5071134;28;20029;-64
2022/05/13 01:37:10;;;;;;;14.77;1.77;;;;;;;;;;5070788;28;20028;-64
2022/05/13 01:39:36;;;;;;;5.78;1.80;;;;;;;;;;5070823;28;20372;-64
2022/05/13 01:42:02;;;;;;;13.35;2.08;;;;;;;;;;5070900;28;20280;-64
2022/05/13 01:44:28;;;;;;;8.68;1.60;;;;;;;;;;5070780;28;20162;-64
2022/05/13 01:46:54;;;;;;;9.57;1.90;;;;;;;;;;5062784;28;20021;-64
2022/05/13 01:49:20;;;;;;;10.07;1.88;;;;;;;;;;5051335;28;20539;-64
2022/05/13 01:51:46;;;;;;;8.73;1.70;;;;;;;;;;5050708;28;20067;-64
2022/05/13 01:54:12;;;;;;;8.75;2.00;;;;;;;;;;5050669;28;20029;-64
2022/05/13 01:56:38;;;;;;;13.55;2.22;;;;;;;;;;5083136;28;20025;-64
2022/05/13 01:59:04;;;;;;;7.53;2.10;;;;;;;;;;5070471;28;20024;-64
2022/05/13 02:01:31;;;;;;;11.27;1.73;;;;;;;;;;5070210;28;20114;-64
2022/05/13 02:03:57;;;;;;;12.90;1.95;;;;;;;;;;5070264;28;20047;-64
2022/05/13 02:06:24;;;;;;;9.35;2.40;;;;;;;;;;5054077;28;20106;-64
2022/05/13 02:08:52;;;;;;;11.93;1.83;;;;;;;;;;5065837;28;20079;-64
2022/05/13 02:11:19;;;;;;;8.63;1.60;;;;;;;;;;5050661;28;20033;-64
2022/05/13 02:13:45;;;;;;;6.80;1.23;;;;;;;;;;5050561;28;20100;-64
2022/05/13 02:16:13;;;;;;;8.32;1.40;;;;;;;;;;5050353;28;20452;-64
2022/05/13 02:18:39;;;;;;;10.27;1.63;;;;;;;;;;5050172;28;20466;-63
2022/05/13 02:21:06;;;;;;;5.43;1.65;;;;;;;;;;5050193;28;20044;-63
2022/05/13 02:23:32;;;;;;;6.63;1.23;;;;;;;;;;5050822;28;20112;-63
2022/05/13 02:26:06;;;;;;;6.53;1.48;;;;;;;;;;5050421;28;20429;-63
2022/05/13 02:28:34;;;;;;;6.95;1.25;;;;;;;;;;5052410;28;20521;-63
2022/05/13 02:31:00;;;;;;;7.05;1.25;;;;;;;;;;5054280;28;20029;-63
2022/05/13 02:33:27;;;;;;;5.97;1.17;;;;;;;;;;5054242;28;20059;-63
2022/05/13 02:35:53;;;;;;;5.18;1.20;;;;;;;;;;5054223;28;20025;-63
2022/05/13 02:38:19;;;;;;;6.30;1.20;;;;;;;;;;5065518;28;20071;-63
2022/05/13 02:43:31;;;;;;;3.90;1.10;;;;;;;;;;5073949;28;20537;-63
2022/05/13 02:45:57;;;;;;;3.42;1.10;;;;;;;;;;5073930;28;20031;-63
2022/05/13 02:48:23;;;;;;;9.57;1.27;;;;;;;;;;5073959;28;20078;-63
2022/05/13 02:50:49;;;;;;;7.65;1.08;;;;;;;;;;5073562;28;20024;-63
2022/05/13 02:53:15;;;;;;;2.13;1.10;;;;;;;;;;5073516;28;20051;-63
2022/05/13 02:55:42;;;;;;;6.40;1.20;;;;;;;;;;5072726;28;20077;-63
2022/05/13 02:58:08;;;;;;;4.53;1.48;;;;;;;;;;5073404;28;20026;-63
2022/05/13 03:00:34;;;;;;;3.83;0.90;;;;;;;;;;5072959;28;20390;-63
2022/05/13 03:03:00;;;;;;;4.95;1.10;;;;;;;;;;5073249;28;20040;-63
2022/05/13 03:05:27;;;;;;;3.15;0.95;;;;;;;;;;5073381;28;20096;-63
2022/05/13 03:07:53;;;;;;;5.10;1.48;;;;;;;;;;5073453;28;20028;-63
2022/05/13 03:10:20;;;;;;;6.97;1.38;;;;;;;;;;5073503;28;20043;-63
2022/05/13 03:12:46;;;;;;;4.97;1.20;;;;;;;;;;5072331;28;20128;-63
2022/05/13 03:15:13;;;;;;;3.63;1.10;;;;;;;;;;5072979;28;20027;-63
2022/05/13 03:17:42;;;;;;;5.53;1.15;;;;;;;;;;5072802;28;20021;-63
2022/05/13 03:20:09;;;;;;;6.97;1.38;;;;;;;;;;5072900;28;20096;-63
2022/05/13 03:22:35;;;;;;;6.28;1.40;;;;;;;;;;5073086;28;20024;-64
2022/05/13 03:25:01;;;;;;;4.25;1.13;;;;;;;;;;5073146;28;20024;-63
2022/05/13 03:27:28;;;;;;;5.85;1.20;;;;;;;;;;5072913;28;20085;-63
2022/05/13 03:29:54;;;;;;;7.63;1.33;;;;;;;;;;5071894;28;20100;-62
2022/05/13 03:32:20;;;;;;;6.70;1.30;;;;;;;;;;5072922;28;20032;-63
2022/05/13 03:34:46;;;;;;;2.58;0.93;;;;;;;;;;5072658;28;20372;-63
2022/05/13 03:37:12;;;;;;;8.40;1.10;;;;;;;;;;5072739;28;20035;-63
2022/05/13 03:39:38;;;;;;;7.82;1.45;;;;;;;;;;5071868;28;20032;-63
2022/05/13 03:42:05;;;;;;;4.68;1.48;;;;;;;;;;5072580;28;20403;-63
2022/05/13 03:44:31;;;;;;;7.13;1.85;;;;;;;;;;5073150;28;20051;-64
2022/05/13 03:46:59;;;;;;;7.07;1.27;;;;;;;;;;5067677;28;20515;-64
2022/05/13 03:49:25;;;;;;;8.90;1.55;;;;;;;;;;5052756;28;20427;-64
2022/05/13 03:51:52;;;;;;;3.60;1.20;;;;;;;;;;5053386;28;20036;-64
2022/05/13 03:54:18;;;;;;;5.03;1.35;;;;;;;;;;5072536;28;20024;-64
2022/05/13 03:56:44;;;;;;;5.93;1.25;;;;;;;;;;5072358;28;20025;-64
2022/05/13 03:59:10;;;;;;;4.18;0.95;;;;;;;;;;5072519;28;20387;-64
2022/05/13 04:01:36;;;;;;;6.07;0.82;;;;;;;;;;5072473;28;20040;-64
2022/05/13 04:04:02;;;;;;;3.95;1.25;;;;;;;;;;5071783;28;20036;-64
2022/05/13 04:09:13;;;;;;;3.72;1.20;;;;;;;;;;5072606;28;20557;-64
2022/05/13 04:11:40;;;;;;;6.55;1.33;;;;;;;;;;5072346;28;20016;-64
2022/05/13 04:16:59;;;;;;;6.45;1.10;;;;;;;;;;5063841;28;20086;-63
2022/05/13 04:19:27;;;;;;;4.53;1.20;;;;;;;;;;5072178;28;20576;-64
2022/05/13 04:21:53;;;;;;;4.20;1.38;;;;;;;;;;5071216;28;20028;-64
2022/05/13 04:24:20;;;;;;;6.30;1.45;;;;;;;;;;5058875;28;20106;-64
2022/05/13 04:26:47;;;;;;;5.18;1.35;;;;;;;;;;5052167;28;20025;-64
2022/05/13 04:29:13;;;;;;;5.38;1.13;;;;;;;;;;5052016;28;20029;-63
2022/05/13 04:31:41;;;;;;;6.63;1.90;;;;;;;;;;5051928;28;20063;-63
2022/05/13 04:34:08;;;;;;;3.55;1.40;;;;;;;;;;5051815;28;20389;-64
2022/05/13 04:36:34;;;;;;;4.20;1.40;;;;;;;;;;5067225;28;20102;-64
2022/05/13 04:39:00;;;;;;;6.32;1.20;;;;;;;;;;5068023;28;20025;-64
2022/05/13 04:44:12;;;;;;;7.35;1.40;;;;;;;;;;5071852;28;20059;-64
2022/05/13 04:46:39;;;;;;;5.07;1.42;;;;;;;;;;5071519;28;20554;-64
2022/05/13 04:49:05;;;;;;;5.18;1.25;;;;;;;;;;5071638;28;20032;-64
2022/05/13 04:51:32;;;;;;;2.97;1.27;;;;;;;;;;5071205;28;20043;-64
2022/05/13 04:53:58;;;;;;;9.23;1.42;;;;;;;;;;5071468;28;20447;-64
2022/05/13 04:56:25;;;;;;;7.78;1.40;;;;;;;;;;5069907;28;20035;-64
2022/05/13 04:58:51;;;;;;;4.22;1.35;;;;;;;;;;5051243;28;20025;-64
2022/05/13 05:01:18;;;;;;;5.70;1.17;;;;;;;;;;5065302;28;20040;-64
2022/05/13 05:03:45;;;;;;;2.55;1.10;;;;;;;;;;5071485;28;20499;-64
2022/05/13 05:06:11;;;;;;;4.97;2.05;;;;;;;;;;5071538;28;20040;-64
2022/05/13 05:08:38;;;;;;;8.65;1.65;;;;;;;;;;5071414;28;20581;-64
2022/05/13 05:11:05;;;;;;;9.52;1.88;;;;;;;;;;5071329;28;20031;-64
2022/05/13 05:13:33;;;;;;;4.45;1.38;;;;;;;;;;5053826;28;20028;-64
2022/05/13 05:16:00;;;;;;;5.18;1.10;;;;;;;;;;5051269;28;20033;-65
2022/05/13 05:18:26;;;;;;;5.05;1.48;;;;;;;;;;5051204;28;20029;-64
2022/05/13 05:20:52;;;;;;;3.53;1.27;;;;;;;;;;5066523;28;20124;-64
2022/05/13 05:23:20;;;;;;;6.82;1.20;;;;;;;;;;5066667;28;20059;-64
2022/05/13 05:25:46;;;;;;;5.47;1.45;;;;;;;;;;5057681;28;20403;-64
2022/05/13 05:28:13;;;;;;;8.30;1.63;;;;;;;;;;5071007;28;20077;-64
2022/05/13 05:30:40;;;;;;;6.97;1.23;;;;;;;;;;5067573;28;20024;-64
2022/05/13 05:33:06;;;;;;;8.50;1.92;;;;;;;;;;5051066;28;20033;-65
2022/05/13 05:35:33;;;;;;;5.32;1.33;;;;;;;;;;5051087;28;20074;-65
2022/05/13 05:37:59;;;;;;;7.30;1.75;;;;;;;;;;5059449;28;20024;-63
2022/05/13 05:40:26;;;;;;;5.45;1.25;;;;;;;;;;5071074;28;20028;-62
2022/05/13 05:42:52;;;;;;;9.40;1.55;;;;;;;;;;5070927;28;20495;-63
2022/05/13 05:45:19;;;;;;;3.90;1.30;;;;;;;;;;5071016;28;20028;-62
2022/05/13 05:47:46;;;;;;;8.05;1.23;;;;;;;;;;5070262;28;20043;-62
2022/05/13 05:50:15;;;;;;;7.60;1.52;;;;;;;;;;5070764;28;20024;-63
2022/05/13 05:52:41;;;;;;;7.80;1.40;;;;;;;;;;5070718;28;20468;-64
2022/05/13 05:58:12;;;;;;;10.95;3.17;;;;;;;;;;5070629;28;20118;-64
2022/05/13 06:00:41;;;;;;;9.38;1.33;;;;;;;;;;5086105;28;20029;-63
2022/05/13 06:03:08;;;;;;;15.93;2.15;;;;;;;;;;5070543;28;20107;-63
2022/05/13 06:05:34;;;;;;;7.50;2.03;;;;;;;;;;5074411;28;20123;-64
2022/05/13 06:08:01;;;;;;;12.45;1.83;;;;;;;;;;5074259;28;20024;-63
2022/05/13 06:10:28;;;;;;;10.73;1.65;;;;;;;;;;5074303;28;20028;-64
2022/05/13 06:12:55;;;;;;;7.75;1.33;;;;;;;;;;5074360;28;20052;-63
2022/05/13 06:15:21;;;;;;;5.30;1.50;;;;;;;;;;5074299;28;20032;-63
2022/05/13 06:17:49;;;;;;;9.80;1.65;;;;;;;;;;5073994;28;20021;-63
2022/05/13 06:20:16;;;;;;;8.32;1.60;;;;;;;;;;5073089;28;20028;-64
2022/05/13 06:22:42;;;;;;;10.13;1.63;;;;;;;;;;5074003;28;20025;-64
2022/05/13 06:25:09;;;;;;;7.47;1.35;;;;;;;;;;5074002;28;20032;-63
2022/05/13 06:27:35;;;;;;;8.63;1.50;;;;;;;;;;5073963;28;20039;-64
2022/05/13 06:30:01;;;;;;;6.75;1.58;;;;;;;;;;5074018;28;20490;-64
2022/05/13 06:32:27;;;;;;;9.82;1.45;;;;;;;;;;5073601;28;20031;-63
2022/05/13 06:34:53;;;;;;;8.27;1.33;;;;;;;;;;5072242;28;20029;-64
2022/05/13 06:37:19;;;;;;;8.95;1.63;;;;;;;;;;5069488;28;20025;-63
2022/05/13 06:39:46;;;;;;;8.35;1.50;;;;;;;;;;5070389;28;20029;-64
2022/05/13 06:42:12;;;;;;;7.15;1.40;;;;;;;;;;5073133;28;20043;-64
2022/05/13 06:44:38;;;;;;;6.82;1.30;;;;;;;;;;5084264;28;20036;-64
2022/05/13 06:47:04;;;;;;;12.10;1.52;;;;;;;;;;5087367;28;20043;-64
2022/05/13 06:49:30;;;;;;;6.65;1.48;;;;;;;;;;5075838;28;20021;-64
2022/05/13 06:51:56;;;;;;;9.00;1.60;;;;;;;;;;5103329;28;20029;-64
2022/05/13 06:54:22;;;;;;;6.32;1.50;;;;;;;;;;5065325;28;20021;-64
2022/05/13 06:56:54;;;;;;;6.53;1.50;;;;;;;;;;5067281;28;20102;-64
2022/05/13 06:59:20;;;;;;;8.85;1.65;;;;;;;;;;5063842;28;20028;-65
2022/05/13 07:01:46;;;;;;;8.52;1.55;;;;;;;;;;5068804;28;20102;-64
2022/05/13 07:04:13;;;;;;;7.78;1.42;;;;;;;;;;5077006;28;20131;-64
2022/05/13 07:06:39;;;;;;;11.15;1.83;;;;;;;;;;5075517;28;20028;-64
2022/05/13 07:09:06;;;;;;;5.13;1.75;;;;;;;;;;5072298;28;20407;-64
2022/05/13 07:11:32;;;;;;;8.90;1.60;;;;;;;;;;5080505;28;20108;-65
2022/05/13 07:13:58;;;;;;;8.20;1.45;;;;;;;;;;5075412;28;20028;-64
2022/05/13 07:16:24;;;;;;;6.72;1.85;;;;;;;;;;5072310;28;20024;-63
2022/05/13 07:18:51;;;;;;;8.77;1.40;;;;;;;;;;5079411;28;20028;-64
2022/05/13 07:21:17;;;;;;;7.53;1.60;;;;;;;;;;5070394;28;20025;-64
2022/05/13 07:23:43;;;;;;;11.68;1.70;;;;;;;;;;5072934;28;20032;-64
2022/05/13 07:26:10;;;;;;;7.78;1.70;;;;;;;;;;5079034;28;20020;-64
2022/05/13 07:28:38;;;;;;;8.48;1.63;;;;;;;;;;5062659;28;20036;-64
2022/05/13 07:31:05;;;;;;;7.35;1.30;;;;;;;;;;5067442;28;20481;-64
2022/05/13 07:33:31;;;;;;;8.70;1.65;;;;;;;;;;5070530;28;20028;-63
2022/05/13 07:35:57;;;;;;;8.57;1.60;;;;;;;;;;5082984;28;20069;-64
2022/05/13 07:38:24;;;;;;;10.70;2.08;;;;;;;;;;5073020;28;20112;-65
2022/05/13 07:43:35;;;;;;;11.30;1.92;;;;;;;;;;5072055;28;20135;-64
2022/05/13 07:46:02;;;;;;;8.70;1.80;;;;;;;;;;5058565;28;20017;-65
2022/05/13 07:48:29;;;;;;;9.93;1.80;;;;;;;;;;5052615;28;20081;-65
2022/05/13 07:50:55;;;;;;;8.30;2.10;;;;;;;;;;5051829;28;20025;-65
2022/05/13 07:53:21;;;;;;;11.05;3.53;;;;;;;;;;5052263;28;20036;-65
2022/05/13 07:55:48;;;;;;;9.93;2.05;;;;;;;;;;5051703;28;20432;-66
2022/05/13 07:58:16;;;;;;;8.27;1.75;;;;;;;;;;5051849;28;20483;-66
2022/05/13 08:00:43;;;;;;;9.65;1.52;;;;;;;;;;5051842;28;20033;-65
2022/05/13 08:03:11;;;;;;;9.00;1.55;;;;;;;;;;5052881;28;20029;-65
2022/05/13 08:05:40;;;;;;;8.13;2.25;;;;;;;;;;5075286;28;20077;-66
2022/05/13 08:08:11;;;;;;;11.45;2.08;;;;;;;;;;5074924;28;20107;-66
2022/05/13 08:10:38;;;;;;;8.27;1.73;;;;;;;;;;5059138;28;20044;-63
2022/05/13 08:13:05;;;;;;;6.03;1.73;;;;;;;;;;5065147;28;20440;-63
2022/05/13 08:15:31;;;;;;;9.43;2.00;;;;;;;;;;5066413;28;20028;-63
2022/05/13 08:17:57;;;;;;;8.73;2.03;;;;;;;;;;5060957;28;20060;-63
2022/05/13 08:20:24;;;;;;;8.32;1.85;;;;;;;;;;5063966;28;20040;-64
2022/05/13 08:22:51;;;;;;;10.65;2.20;;;;;;;;;;5069278;28;20029;-65
2022/05/13 08:25:17;;;;;;;6.25;1.60;;;;;;;;;;5065209;28;20118;-65
2022/05/13 08:27:43;;;;;;;9.73;2.40;;;;;;;;;;5070181;28;20028;-65
2022/05/13 08:30:10;;;;;;;11.02;2.03;;;;;;;;;;5070803;28;20024;-64
2022/05/13 08:32:37;;;;;;;10.80;2.28;;;;;;;;;;5071659;28;20103;-65
2022/05/13 08:35:03;;;;;;;8.73;1.70;;;;;;;;;;5070595;28;20020;-65
2022/05/13 08:37:29;;;;;;;12.07;2.10;;;;;;;;;;5069118;28;20033;-65
2022/05/13 08:39:59;;;;;;;13.02;2.00;;;;;;;;;;5066443;28;20047;-65
2022/05/13 08:42:36;;;;;;;9.18;1.95;;;;;;;;;;5064203;28;20031;-65
2022/05/13 08:45:04;;;;;;;6.97;1.70;;;;;;;;;;5067904;28;20036;-64
2022/05/13 08:47:40;;;;;;;12.02;2.00;;;;;;;;;;5065983;28;20028;-65
2022/05/13 08:50:13;;;;;;;9.60;1.95;;;;;;;;;;5062969;28;20487;-65
2022/05/13 08:53:08;;;;;;;8.43;2.03;;;;;;;;;;5064235;28;20040;-64
2022/05/13 08:55:43;;;;;;;10.23;2.08;;;;;;;;;;5061692;28;20458;-64
2022/05/13 08:58:12;;;;;;;14.30;2.17;;;;;;;;;;5062151;28;20562;-64
2022/05/13 09:00:59;;;;;;;12.13;1.98;;;;;;;;;;5065898;28;20028;-64
2022/05/13 09:03:31;;;;;;;15.70;1.90;;;;;;;;;;5069805;28;20044;-64
2022/05/13 09:06:06;;;;;;;16.08;2.78;;;;;;;;;;5070137;28;20049;-64
2022/05/13 09:08:32;;;;;;;;;;;;;;;;;;5066777;28;20021;-64
2022/05/13 09:11:17;;;;;;;8.40;1.95;;;;;;;;;;5066241;28;20334;-64
2022/05/13 09:14:02;;;;;;;10.13;1.90;;;;;;;;;;5068846;28;20036;-64
2022/05/13 09:16:54;;;;;;;12.70;1.92;;;;;;;;;;5069613;28;20036;-64
2022/05/13 09:19:33;;;;;;;9.00;1.70;;;;;;;;;;5055315;28;20036;-65
2022/05/13 09:21:59;;;;;;;9.77;1.80;;;;;;;;;;5059585;28;20440;-64
2022/05/13 09:24:25;;;;;;;11.00;1.95;;;;;;;;;;5075962;28;20032;-64
2022/05/13 09:26:51;;;;;;;8.35;2.13;;;;;;;;;;5073719;28;20036;-64
2022/05/13 09:29:18;;;;;;;12.23;1.98;;;;;;;;;;5070643;28;20028;-64
2022/05/13 09:31:46;;;;;;;11.05;2.00;;;;;;;;;;5070080;28;20479;-64
2022/05/13 09:34:36;;;;;;;15.65;2.20;;;;;;;;;;5070452;28;20032;-65
2022/05/13 09:37:12;;;;;;;11.90;1.83;;;;;;;;;;5069408;28;20032;-64
2022/05/13 09:39:44;;;;;;;15.57;2.50;;;;;;;;;;5069874;28;20024;-65
2022/05/13 09:42:20;;;;;;;9.82;2.00;;;;;;;;;;5070164;28;20028;-64
2022/05/13 09:44:47;;;;;;;11.38;2.28;;;;;;;;;;5069556;28;20040;-64
2022/05/13 09:47:24;;;;;;;12.38;1.95;;;;;;;;;;5070689;28;20024;-64
2022/05/13 09:49:50;;;;;;;17.60;2.40;;;;;;;;;;5068038;28;20036;-65
2022/05/13 09:52:18;;;;;;;10.63;2.10;;;;;;;;;;5061949;28;20020;-65
2022/05/13 09:54:46;;;;;;;12.48;1.88;;;;;;;;;;5070049;28;20024;-64
2022/05/13 09:57:12;;;;;;;11.50;1.90;;;;;;;;;;5070150;28;20368;-64
2022/05/13 09:59:43;;;;;;;10.75;1.98;;;;;;;;;;5065277;28;20480;-65
2022/05/13 10:02:32;;;;;;;14.15;2.03;;;;;;;;;;5069621;28;20045;-64
2022/05/13 10:05:11;;;;;;;7.97;1.67;;;;;;;;;;5067058;28;20102;-65
2022/05/13 10:07:42;;;;;;;7.10;1.75;;;;;;;;;;5067554;28;20020;-65
2022/05/13 10:15:55;;;;;;;10.68;1.80;;;;;;;;;;5059919;28;20059;-65
2022/05/13 10:18:27;;;;;;;13.93;1.95;;;;;;;;;;5069949;28;20033;-65
2022/05/13 10:20:55;;;;;;;10.85;2.42;;;;;;;;;;5070187;28;20379;-65
2022/05/13 10:23:25;;;;;;;9.52;1.77;;;;;;;;;;5065963;28;20033;-65
2022/05/13 10:26:00;;;;;;;11.88;2.03;;;;;;;;;;5070377;28;20028;-65
2022/05/13 10:28:50;;;;;;;12.82;2.65;;;;;;;;;;5070334;28;20025;-65
2022/05/13 10:31:17;;;;;;;13.98;2.25;;;;;;;;;;5069663;28;20497;-64
2022/05/13 10:33:57;;;;;;;9.43;1.98;;;;;;;;;;5070200;28;20098;-65
2022/05/13 10:36:32;;;;;;;7.22;1.55;;;;;;;;;;5069310;28;20060;-65
2022/05/13 10:39:10;;;;;;;9.85;1.70;;;;;;;;;;5067666;28;20048;-65
2022/05/13 10:41:42;;;;;;;9.32;1.73;;;;;;;;;;5070195;28;20063;-65
2022/05/13 10:44:08;;;;;;;10.07;2.20;;;;;;;;;;5070124;28;20040;-65
2022/05/13 10:46:45;;;;;;;10.05;1.90;;;;;;;;;;5070174;28;20028;-65
2022/05/13 10:49:11;;;;;;;9.43;1.83;;;;;;;;;;5071138;28;20024;-65
2022/05/13 10:51:53;;;;;;;11.07;1.98;;;;;;;;;;5072491;28;20025;-65
2022/05/13 10:54:25;;;;;;;11.02;2.03;;;;;;;;;;5071040;28;20028;-65
2022/05/13 10:56:54;;;;;;;12.90;2.20;;;;;;;;;;5053293;28;20040;-65
2022/05/13 10:59:20;;;;;;;10.18;1.92;;;;;;;;;;5053377;28;20266;-65
2022/05/13 11:01:46;;;;;;;7.95;1.60;;;;;;;;;;5053242;28;20440;-65
2022/05/13 11:04:13;;;;;;;13.85;2.30;;;;;;;;;;5053238;28;20029;-65
2022/05/13 11:06:48;;;;;;;12.13;2.30;;;;;;;;;;5053383;28;20498;-65
2022/05/13 11:09:33;;;;;;;13.52;2.22;;;;;;;;;;5053821;28;20092;-65
2022/05/13 11:12:10;;;;;;;10.48;1.90;;;;;;;;;;5064625;28;20471;-65
2022/05/13 11:14:42;;;;;;;9.20;2.40;;;;;;;;;;5073329;28;20036;-65
2022/05/13 11:17:08;;;;;;;6.32;1.88;;;;;;;;;;5073262;28;20086;-66
2022/05/13 11:19:37;;;;;;;10.98;1.95;;;;;;;;;;5072843;28;20036;-66
2022/05/13 11:22:13;;;;;;;10.07;2.00;;;;;;;;;;5072722;28;20111;-65
2022/05/13 11:27:57;;;;;;;8.82;2.20;;;;;;;;;;5065032;28;20058;-65
2022/05/13 11:30:32;;;;;;;14.50;2.30;;;;;;;;;;5072930;28;20028;-65
2022/05/13 11:33:09;;;;;;;10.05;1.98;;;;;;;;;;5072810;28;20154;-64
2022/05/13 11:35:38;;;;;;;8.45;2.03;;;;;;;;;;5071659;28;20549;-66
2022/05/13 11:38:09;;;;;;;10.55;2.05;;;;;;;;;;5072691;28;20068;-64
2022/05/13 11:40:42;;;;;;;11.13;2.10;;;;;;;;;;5072521;28;20474;-65
2022/05/13 11:43:26;;;;;;;13.23;1.90;;;;;;;;;;5063385;28;20028;-65
2022/05/13 11:46:18;;;;;;;9.02;1.90;;;;;;;;;;5052188;28;20109;-65
2022/05/13 11:48:45;;;;;;;11.00;1.70;;;;;;;;;;5051666;28;20379;-65
2022/05/13 11:51:24;;;;;;;10.40;2.38;;;;;;;;;;5066755;28;20032;-65
2022/05/13 11:54:10;;;;;;;12.82;1.77;;;;;;;;;;5051101;28;20097;-64
2022/05/13 11:56:38;;;;;;;7.47;1.83;;;;;;;;;;5057616;28;20052;-67
2022/05/13 11:59:11;;;;;;;13.18;2.10;;;;;;;;;;5071954;28;20443;-65
2022/05/13 12:01:37;;;;;;;7.13;1.90;;;;;;;;;;5067724;28;20044;-65
2022/05/13 12:04:16;;;;;;;7.72;2.00;;;;;;;;;;5070435;28;20047;-65
2022/05/13 12:06:51;;;;;;;12.27;2.40;;;;;;;;;;5071918;28;20025;-65
2022/05/13 12:09:28;;;;;;;10.35;2.00;;;;;;;;;;5072072;28;20467;-65
2022/05/13 12:12:10;;;;;;;10.90;2.03;;;;;;;;;;5071818;28;20571;-63
2022/05/13 12:14:48;;;;;;;11.30;2.47;;;;;;;;;;5071755;28;20529;-64
2022/05/13 12:17:32;;;;;;;8.90;2.03;;;;;;;;;;5060744;28;20032;-66
2022/05/13 12:20:04;;;;;;;9.88;2.35;;;;;;;;;;5057861;28;20025;-65
2022/05/13 12:22:30;;;;;;;15.25;2.17;;;;;;;;;;5071622;28;20029;-64
2022/05/13 12:24:56;;;;;;;10.60;2.20;;;;;;;;;;5070904;28;20036;-65
2022/05/13 12:27:29;;;;;;;10.10;2.03;;;;;;;;;;5084663;28;20468;-65
2022/05/13 12:29:59;;;;;;;8.13;1.75;;;;;;;;;;5079706;28;20483;-65
2022/05/13 12:32:35;;;;;;;12.18;2.42;;;;;;;;;;5089885;28;20039;-65
2022/05/13 12:37:46;;;;;;;11.23;1.85;;;;;;;;;;5077606;28;20510;-65
2022/05/13 12:40:12;;;;;;;10.25;2.00;;;;;;;;;;5078786;28;20016;-65
2022/05/13 12:42:43;;;;;;;11.65;1.85;;;;;;;;;;5071274;28;20028;-64
2022/05/13 12:45:21;;;;;;;7.43;1.77;;;;;;;;;;5071116;28;20037;-65
2022/05/13 12:47:59;;;;;;;10.80;1.98;;;;;;;;;;5071474;28;20054;-64
2022/05/13 12:50:30;;;;;;;16.55;2.30;;;;;;;;;;5070483;28;20051;-65
2022/05/13 12:52:56;;;;;;;5.90;1.50;;;;;;;;;;5075641;28;20390;-66
2022/05/13 12:55:24;;;;;;;12.73;2.08;;;;;;;;;;5091101;28;20035;-65
2022/05/13 12:58:02;;;;;;;12.70;1.80;;;;;;;;;;5070798;28;20043;-66
2022/05/13 13:00:35;;;;;;;12.13;1.60;;;;;;;;;;5064072;28;20071;-66
2022/05/13 13:03:02;;;;;;;13.23;2.38;;;;;;;;;;5071342;28;20036;-65
2022/05/13 13:05:30;;;;;;;8.85;1.60;;;;;;;;;;5070225;28;20056;-66
2022/05/13 13:08:04;;;;;;;12.15;2.63;;;;;;;;;;5068609;28;20475;-66
2022/05/13 13:10:30;;;;;;;9.48;2.00;;;;;;;;;;5051331;28;20048;-66
2022/05/13 13:12:57;;;;;;;14.32;2.28;;;;;;;;;;5050977;28;20448;-65
2022/05/13 13:15:33;;;;;;;13.27;1.70;;;;;;;;;;5066434;28;20020;-66
2022/05/13 13:18:00;;;;;;;12.70;2.15;;;;;;;;;;5071304;28;20048;-66
2022/05/13 13:20:28;;;;;;;10.40;2.15;;;;;;;;;;5070775;28;20099;-66
2022/05/13 13:22:56;;;;;;;14.40;2.30;;;;;;;;;;5064093;28;20017;-66
2022/05/13 13:25:27;;;;;;;11.70;1.88;;;;;;;;;;5072219;28;20104;-66
2022/05/13 13:27:58;;;;;;;8.57;1.90;;;;;;;;;;5064492;28;20025;-66
2022/05/13 13:30:25;;;;;;;7.55;1.75;;;;;;;;;;5069240;28;20035;-66
2022/05/13 13:32:52;;;;;;;7.95;1.85;;;;;;;;;;5077202;28;20078;-66
2022/05/13 13:35:38;;;;;;;12.50;2.20;;;;;;;;;;5068798;28;20020;-67
2022/05/13 13:38:05;;;;;;;12.32;1.92;;;;;;;;;;5065393;28;20024;-66
2022/05/13 13:40:36;;;;;;;11.95;1.92;;;;;;;;;;5069805;28;20490;-67
2022/05/13 13:43:12;;;;;;;11.75;2.13;;;;;;;;;;5062541;28;20542;-66
2022/05/13 13:45:39;;;;;;;10.25;2.00;;;;;;;;;;5062063;28;20033;-66
2022/05/13 13:48:11;;;;;;;15.07;2.38;;;;;;;;;;5068030;28;20035;-66
2022/05/13 13:50:45;;;;;;;8.65;2.03;;;;;;;;;;5059996;28;20031;-66
2022/05/13 13:53:11;;;;;;;9.07;1.83;;;;;;;;;;5080215;28;20021;-66
2022/05/13 13:55:39;;;;;;;10.23;2.10;;;;;;;;;;5068868;28;20028;-66
2022/05/13 13:58:15;;;;;;;10.48;2.08;;;;;;;;;;5067591;28;20413;-66
2022/05/13 14:00:43;;;;;;;11.45;1.80;;;;;;;;;;5067245;28;20029;-66
2022/05/13 14:03:14;;;;;;;13.60;2.50;;;;;;;;;;5059423;28;20032;-66
2022/05/13 14:05:59;;;;;;;10.20;2.20;;;;;;;;;;5054478;28;20040;-66
2022/05/13 14:08:27;;;;;;;16.23;2.50;;;;;;;;;;5056894;28;20028;-66
2022/05/13 14:10:56;;;;;;;12.68;2.35;;;;;;;;;;5068749;28;20032;-66
2022/05/13 14:13:28;;;;;;;14.50;2.30;;;;;;;;;;5068753;28;20016;-66
2022/05/13 14:16:03;;;;;;;16.90;2.42;;;;;;;;;;5063628;28;20033;-66
2022/05/13 14:18:29;;;;;;;16.80;2.78;;;;;;;;;;5066382;28;20036;-66
2022/05/13 14:21:06;;;;;;;12.75;2.60;;;;;;;;;;5063315;28;20035;-65
2022/05/13 14:23:33;;;;;;;11.35;2.33;;;;;;;;;;5074476;28;20048;-65
2022/05/13 14:26:02;;;;;;;15.82;2.80;;;;;;;;;;5066915;28;20032;-65
2022/05/13 14:28:30;;;;;;;15.18;2.15;;;;;;;;;;5072751;28;20035;-65
2022/05/13 14:31:04;;;;;;;12.93;2.33;;;;;;;;;;5067645;28;20017;-65
2022/05/13 14:33:30;;;;;;;12.38;2.20;;;;;;;;;;5065350;28;20063;-64
2022/05/13 14:36:04;;;;;;;13.68;2.50;;;;;;;;;;5068186;28;20025;-64
2022/05/13 14:41:22;;;;;;;16.08;2.70;;;;;;;;;;5072051;28;20047;-65
2022/05/13 14:43:50;;;;;;;11.88;2.00;;;;;;;;;;5073339;28;20487;-65
2022/05/13 14:46:17;;;;;;;13.10;2.28;;;;;;;;;;5073638;28;20019;-65
2022/05/13 14:48:43;;;;;;;15.68;2.50;;;;;;;;;;5073437;28;20391;-65
2022/05/13 14:51:22;;;;;;;14.48;2.00;;;;;;;;;;5059076;28;20020;-65
2022/05/13 14:53:53;;;;;;;12.45;2.05;;;;;;;;;;5058053;28;20016;-65
2022/05/13 14:56:19;;;;;;;10.15;1.83;;;;;;;;;;5072862;28;20052;-65
2022/05/13 14:59:06;;;;;;;12.48;2.33;;;;;;;;;;5073347;28;20384;-65
2022/05/13 15:01:38;;;;;;;9.70;1.88;;;;;;;;;;5072999;28;20142;-65
2022/05/13 15:04:24;;;;;;;12.57;2.08;;;;;;;;;;5071090;28;20139;-65
2022/05/13 15:06:50;;;;;;;14.43;2.35;;;;;;;;;;5068576;28;20037;-66
2022/05/13 15:09:17;;;;;;;13.55;2.30;;;;;;;;;;5052891;28;20021;-66
2022/05/13 15:11:43;;;;;;;14.27;2.55;;;;;;;;;;5052601;28;20074;-66
2022/05/13 15:14:09;;;;;;;10.43;1.92;;;;;;;;;;5053023;28;20624;-66
2022/05/13 15:16:37;;;;;;;15.57;2.63;;;;;;;;;;5053246;28;20032;-66
2022/05/13 15:19:03;;;;;;;14.73;2.38;;;;;;;;;;5053016;28;20028;-66
2022/05/13 15:21:29;;;;;;;13.68;2.33;;;;;;;;;;5052697;28;20040;-66
2022/05/13 15:23:56;;;;;;;15.32;2.45;;;;;;;;;;5053372;28;20098;-66